createdAt,value
2022-09-05T00:01:18.802Z,4.70
2022-09-05T00:07:09.149Z,5.10
2022-09-05T00:12:37.257Z,5.00
2022-09-05T00:24:17.332Z,5.10
2022-09-05T00:25:14.392Z,5.70
2022-09-05T00:37:00.441Z,5.30
2022-09-05T00:42:25.020Z,5.40
2022-09-05T00:48:06.587Z,5.80
2022-09-05T00:53:45.115Z,5.60
2022-09-05T00:59:58.892Z,5.50
2022-09-05T01:05:55.860Z,5.10
2022-09-05T01:11:36.748Z,5.50
2022-09-05T01:17:28.777Z,6.20
2022-09-05T01:22:59.155Z,5.70
2022-09-05T01:29:15.632Z,6.90
2022-09-05T01:34:31.223Z,6.00
2022-09-05T01:40:14.903Z,5.80
2022-09-05T01:46:12.276Z,6.20
2022-09-05T01:52:02.309Z,5.70
2022-09-05T01:57:37.243Z,6.40
2022-09-05T02:03:31.796Z,6.70
2022-09-05T02:09:41.033Z,6.20
2022-09-05T02:15:09.978Z,6.20
2022-09-05T02:20:57.740Z,6.30
2022-09-05T02:26:25.091Z,6.60
2022-09-05T02:31:49.086Z,6.80
2022-09-05T02:39:19.969Z,6.90
2022-09-05T02:45:21.698Z,5.90
2022-09-05T02:52:21.283Z,5.90
2022-09-05T02:57:34.885Z,6.80
2022-09-05T03:01:54.140Z,6.00
2022-09-05T03:07:48.891Z,6.20
2022-09-05T03:13:25.674Z,6.60
2022-09-05T03:19:01.473Z,6.30
2022-09-05T03:24:34.820Z,5.80
2022-09-05T03:30:16.962Z,7.60
2022-09-05T03:36:05.208Z,6.30
2022-09-05T03:41:50.180Z,9.00
2022-09-05T03:47:11.812Z,6.20
2022-09-05T03:57:16.679Z,6.50
2022-09-05T03:59:00.361Z,6.00
2022-09-05T04:08:18.450Z,6.60
2022-09-05T04:10:34.619Z,6.50
2022-09-05T04:16:03.964Z,6.60
2022-09-05T04:21:30.336Z,6.20
2022-09-05T04:27:00.988Z,5.40
2022-09-05T04:32:45.992Z,6.20
2022-09-05T04:38:13.014Z,6.10
2022-09-05T04:43:52.412Z,5.70
2022-09-05T04:49:30.968Z,6.00
2022-09-05T04:54:58.010Z,5.90
2022-09-05T05:06:02.648Z,5.70
2022-09-05T05:06:45.412Z,5.20
2022-09-05T05:17:58.392Z,5.00
2022-09-05T05:18:39.729Z,5.60
2022-09-05T05:23:46.742Z,5.30
2022-09-05T05:29:26.148Z,4.80
2022-09-05T05:34:56.903Z,5.90
2022-09-05T05:40:17.971Z,4.40
2022-09-05T05:45:39.127Z,4.40
2022-09-05T05:52:01.825Z,4.60
2022-09-05T05:58:11.719Z,5.20
2022-09-05T06:03:44.640Z,4.90
2022-09-05T06:14:48.231Z,4.60
2022-09-05T06:15:35.460Z,5.40
2022-09-05T06:22:08.747Z,4.50
2022-09-05T06:27:43.874Z,4.90
2022-09-05T06:33:39.180Z,4.80
2022-09-05T06:39:09.767Z,4.20
2022-09-05T06:44:50.905Z,4.40
2022-09-05T06:50:24.434Z,4.30
2022-09-05T06:55:59.515Z,4.40
2022-09-05T07:01:59.910Z,3.90
2022-09-05T07:07:18.466Z,4.30
2022-09-05T07:12:45.463Z,4.00
2022-09-05T07:18:40.864Z,3.50
2022-09-05T07:24:09.831Z,4.20
2022-09-05T07:29:36.921Z,3.90
2022-09-05T07:35:02.122Z,3.90
2022-09-05T07:40:25.865Z,4.10
2022-09-05T07:46:11.909Z,4.10
2022-09-05T07:56:54.789Z,4.60
2022-09-05T07:57:51.396Z,3.60
2022-09-05T08:03:14.182Z,3.20
2022-09-05T08:09:21.922Z,3.30
2022-09-05T08:14:50.440Z,3.60
2022-09-05T08:20:14.443Z,3.60
2022-09-05T08:25:57.330Z,3.00
2022-09-05T08:31:46.236Z,4.10
2022-09-05T08:37:10.913Z,3.30
2022-09-05T08:44:13.567Z,3.30
2022-09-05T08:48:40.497Z,3.50
2022-09-05T08:54:05.468Z,3.00
2022-09-05T09:00:19.897Z,3.40
2022-09-05T09:06:13.947Z,3.00
2022-09-05T09:11:41.388Z,3.00
2022-09-05T09:17:24.004Z,3.00
2022-09-05T09:22:59.928Z,2.90
2022-09-05T09:28:50.187Z,3.00
2022-09-05T09:34:25.773Z,2.80
2022-09-05T09:40:09.813Z,2.60
2022-09-05T09:45:43.192Z,2.80
2022-09-05T09:51:36.665Z,2.80
2022-09-05T09:57:49.005Z,2.70
2022-09-05T10:09:50.584Z,2.40
2022-09-05T10:11:00.720Z,3.00
2022-09-05T10:15:44.568Z,3.20
2022-09-05T10:21:26.721Z,2.40
2022-09-05T10:27:09.445Z,2.60
2022-09-05T10:35:07.572Z,2.60
2022-09-05T10:38:34.435Z,2.40
2022-09-05T10:44:03.471Z,2.80
2022-09-05T10:49:30.318Z,2.30
2022-09-05T10:55:14.665Z,2.60
2022-09-05T11:02:27.526Z,2.90
2022-09-05T11:06:53.424Z,2.80
2022-09-05T11:12:20.621Z,2.40
2022-09-05T11:18:15.953Z,2.40
2022-09-05T11:23:56.945Z,2.50
2022-09-05T11:29:23.341Z,2.60
2022-09-05T11:39:59.004Z,1.80
2022-09-05T11:41:28.981Z,1.90
2022-09-05T11:46:52.129Z,1.90
2022-09-05T11:52:29.967Z,2.00
2022-09-05T11:58:44.531Z,2.70
2022-09-05T12:04:01.094Z,2.70
2022-09-05T12:09:32.272Z,2.20
2022-09-05T12:15:04.353Z,3.00
2022-09-05T12:20:57.615Z,2.00
2022-09-05T12:27:43.669Z,2.60
2022-09-05T12:33:58.271Z,2.20
2022-09-05T12:40:15.765Z,1.70
2022-09-05T12:44:40.354Z,2.00
2022-09-05T12:49:47.410Z,4.50
2022-09-05T12:55:24.443Z,5.90
2022-09-05T13:03:07.649Z,2.60
2022-09-05T13:06:42.575Z,2.10
2022-09-05T13:14:57.071Z,1.90
2022-09-05T13:18:32.525Z,2.60
2022-09-05T13:24:32.539Z,2.20
2022-09-05T13:32:36.122Z,2.10
2022-09-05T13:38:07.747Z,2.50
2022-09-05T13:42:06.346Z,1.90
2022-09-05T13:47:50.000Z,2.00
2022-09-05T13:53:27.864Z,1.80
2022-09-05T13:59:02.328Z,2.00
2022-09-05T14:10:40.695Z,1.70
2022-09-05T14:16:13.515Z,1.90
2022-09-05T14:21:41.231Z,2.10
2022-09-05T14:27:32.458Z,2.10
2022-09-05T14:37:54.127Z,1.60
2022-09-05T14:40:32.410Z,1.90
2022-09-05T14:46:14.008Z,2.30
2022-09-05T14:51:40.552Z,2.30
2022-09-05T15:00:51.024Z,1.70
2022-09-05T15:02:54.499Z,2.50
2022-09-05T15:08:20.315Z,1.50
2022-09-05T15:13:32.450Z,1.60
2022-09-05T15:18:41.284Z,2.30
2022-09-05T15:24:18.163Z,2.00
2022-09-05T15:29:30.713Z,2.00
2022-09-05T15:34:34.302Z,1.60
2022-09-05T15:40:24.008Z,2.80
2022-09-05T15:45:32.133Z,1.80
2022-09-05T15:50:44.457Z,2.10
2022-09-05T15:56:19.169Z,1.90
2022-09-05T16:02:03.039Z,1.80
2022-09-05T16:10:45.239Z,1.80
2022-09-05T16:12:44.563Z,2.10
2022-09-05T16:23:18.356Z,2.20
2022-09-05T16:23:57.015Z,1.80
2022-09-05T16:29:27.174Z,1.60
2022-09-05T16:34:52.962Z,1.80
2022-09-05T16:40:38.170Z,2.10
2022-09-05T16:46:14.874Z,2.00
2022-09-05T16:51:35.632Z,4.70
2022-09-05T17:02:27.619Z,2.00
2022-09-05T17:08:13.081Z,2.20
2022-09-05T17:13:34.242Z,2.50
2022-09-05T17:18:42.350Z,3.80
2022-09-05T17:29:23.618Z,4.70
2022-09-05T17:36:08.699Z,3.80
2022-09-05T17:41:57.685Z,3.70
2022-09-05T17:47:35.950Z,2.90
2022-09-05T17:53:24.922Z,2.40
2022-09-05T17:58:49.494Z,2.60
2022-09-05T18:04:15.784Z,3.20
2022-09-05T18:10:14.557Z,2.70
2022-09-05T18:15:28.510Z,2.70
2022-09-05T18:26:40.442Z,3.30
2022-09-05T18:31:51.613Z,3.40
2022-09-05T18:37:01.086Z,3.00
2022-09-05T18:42:34.727Z,3.20
2022-09-05T18:47:59.205Z,3.70
2022-09-05T18:53:28.607Z,3.70
2022-09-05T18:58:35.814Z,3.70
2022-09-05T19:03:48.525Z,3.20
2022-09-05T19:09:14.199Z,3.50
2022-09-05T19:14:45.400Z,3.80
2022-09-05T19:20:49.640Z,3.60
2022-09-05T19:26:12.519Z,4.90
2022-09-05T19:36:53.409Z,4.80
2022-09-05T19:37:30.511Z,4.10
2022-09-05T19:47:28.368Z,4.70
2022-09-05T19:48:07.509Z,5.40
2022-09-05T19:53:22.580Z,5.10
2022-09-05T19:58:31.303Z,4.30
2022-09-05T20:03:41.038Z,5.10
2022-09-05T20:08:49.365Z,4.10
2022-09-05T20:13:54.388Z,4.10
2022-09-05T20:18:57.748Z,4.30
2022-09-05T20:24:01.097Z,4.10
2022-09-05T20:29:12.210Z,3.60
2022-09-05T20:37:18.522Z,4.00
2022-09-05T20:43:35.703Z,4.00
2022-09-05T20:45:44.743Z,4.60
2022-09-05T20:54:19.758Z,4.70
2022-09-05T20:56:23.366Z,5.50
2022-09-05T21:01:28.446Z,4.00
2022-09-05T21:06:36.668Z,3.90
2022-09-05T21:11:50.753Z,3.50
2022-09-05T21:16:58.619Z,3.40
2022-09-05T21:22:25.247Z,3.10
2022-09-05T21:27:38.221Z,2.80
2022-09-05T21:32:41.979Z,2.70
2022-09-05T21:37:50.285Z,2.70
2022-09-05T21:46:02.586Z,2.90
2022-09-05T21:48:34.981Z,2.00
2022-09-05T21:59:15.053Z,2.70
2022-09-05T21:59:36.534Z,2.30
2022-09-05T22:04:43.021Z,1.80
2022-09-05T22:09:56.580Z,1.80
2022-09-05T22:15:27.565Z,1.80
2022-09-05T22:20:27.917Z,2.10
2022-09-05T22:25:34.632Z,1.90
2022-09-05T22:30:39.914Z,1.80
2022-09-05T22:35:45.027Z,1.50
2022-09-05T22:40:49.498Z,1.50
2022-09-05T22:45:57.533Z,1.70
2022-09-05T22:51:00.989Z,1.80
2022-09-05T22:56:09.145Z,1.70
2022-09-05T23:01:13.430Z,1.50
2022-09-05T23:06:18.357Z,2.00
2022-09-05T23:11:44.546Z,2.10
2022-09-05T23:16:51.285Z,1.80
2022-09-05T23:22:02.473Z,1.70
2022-09-05T23:27:06.161Z,1.90
2022-09-05T23:32:10.317Z,1.60
2022-09-05T23:37:16.128Z,1.70
2022-09-05T23:42:21.777Z,1.60
2022-09-05T23:47:25.521Z,1.60
2022-09-05T23:52:32.009Z,1.60
2022-09-05T23:57:36.644Z,1.70
